sensor_id;sensor_type;location;lat;lon;timestamp;pressure;altitude;pressure_sealevel;temperature;humidity
77149;BME280;66122;47.130;16.844;2023-11-19T00:02:44;100380.34;;;1.71;100.00
77149;BME280;66122;47.130;16.844;2023-11-19T00:12:48;100376.03;;;1.65;100.00
77149;BME280;66122;47.130;16.844;2023-11-19T00:22:51;100387.44;;;1.52;100.00
77149;BME280;66122;47.130;16.844;2023-11-19T00:32:54;100352.78;;;1.33;100.00
77149;BME280;66122;47.130;16.844;2023-11-19T00:42:57;100372.91;;;1.10;100.00
77149;BME280;66122;47.130;16.844;2023-11-19T00:53:02;100378.25;;;0.92;100.00
77149;BME280;66122;47.130;16.844;2023-11-19T01:03:06;100365.09;;;1.13;100.00
77149;BME280;66122;47.130;16.844;2023-11-19T01:13:10;100361.53;;;1.23;100.00
77149;BME280;66122;47.130;16.844;2023-11-19T01:23:12;100350.81;;;1.63;100.00
77149;BME280;66122;47.130;16.844;2023-11-19T01:33:15;100327.09;;;1.82;100.00
77149;BME280;66122;47.130;16.844;2023-11-19T01:43:38;100313.97;;;1.88;100.00
77149;BME280;66122;47.130;16.844;2023-11-19T01:53:41;100277.31;;;1.99;99.64
77149;BME280;66122;47.130;16.844;2023-11-19T02:03:43;100273.25;;;1.68;100.00
77149;BME280;66122;47.130;16.844;2023-11-19T02:13:46;100277.69;;;1.61;100.00
77149;BME280;66122;47.130;16.844;2023-11-19T02:23:49;100256.75;;;1.66;100.00
77149;BME280;66122;47.130;16.844;2023-11-19T02:33:52;100239.28;;;1.71;100.00
77149;BME280;66122;47.130;16.844;2023-11-19T02:43:54;100232.13;;;1.88;100.00
77149;BME280;66122;47.130;16.844;2023-11-19T02:53:57;100203.84;;;2.20;100.00
77149;BME280;66122;47.130;16.844;2023-11-19T03:04:01;100203.09;;;2.09;100.00
77149;BME280;66122;47.130;16.844;2023-11-19T03:14:05;100187.66;;;1.91;100.00
77149;BME280;66122;47.130;16.844;2023-11-19T03:24:08;100161.63;;;1.83;100.00
77149;BME280;66122;47.130;16.844;2023-11-19T03:34:10;100167.03;;;1.70;100.00
77149;BME280;66122;47.130;16.844;2023-11-19T03:44:13;100152.06;;;1.84;100.00
77149;BME280;66122;47.130;16.844;2023-11-19T03:54:15;100127.56;;;1.94;100.00
77149;BME280;66122;47.130;16.844;2023-11-19T04:04:18;100106.41;;;2.09;100.00
77149;BME280;66122;47.130;16.844;2023-11-19T04:14:21;100102.22;;;1.98;100.00
77149;BME280;66122;47.130;16.844;2023-11-19T04:24:23;100091.16;;;1.79;100.00
77149;BME280;66122;47.130;16.844;2023-11-19T04:34:26;100074.72;;;1.71;100.00
77149;BME280;66122;47.130;16.844;2023-11-19T04:44:29;100075.56;;;1.73;100.00
77149;BME280;66122;47.130;16.844;2023-11-19T04:54:32;100037.13;;;1.81;100.00
77149;BME280;66122;47.130;16.844;2023-11-19T05:04:34;100051.00;;;1.86;100.00
77149;BME280;66122;47.130;16.844;2023-11-19T05:14:37;100001.28;;;1.90;100.00
77149;BME280;66122;47.130;16.844;2023-11-19T05:24:40;100011.53;;;2.03;100.00
77149;BME280;66122;47.130;16.844;2023-11-19T05:34:43;99992.38;;;2.02;100.00
77149;BME280;66122;47.130;16.844;2023-11-19T05:44:48;99984.53;;;2.02;100.00
77149;BME280;66122;47.130;16.844;2023-11-19T05:54:51;99974.66;;;2.22;100.00
77149;BME280;66122;47.130;16.844;2023-11-19T06:04:54;99970.97;;;2.34;100.00
77149;BME280;66122;47.130;16.844;2023-11-19T06:14:57;99975.41;;;2.30;100.00
77149;BME280;66122;47.130;16.844;2023-11-19T06:24:59;99956.94;;;2.38;100.00
77149;BME280;66122;47.130;16.844;2023-11-19T06:35:02;99944.66;;;2.43;100.00
77149;BME280;66122;47.130;16.844;2023-11-19T06:45:07;99958.53;;;2.47;100.00
77149;BME280;66122;47.130;16.844;2023-11-19T06:55:09;99948.78;;;2.56;100.00
77149;BME280;66122;47.130;16.844;2023-11-19T07:05:12;99969.28;;;2.79;100.00
77149;BME280;66122;47.130;16.844;2023-11-19T07:15:16;99939.22;;;2.98;100.00
77149;BME280;66122;47.130;16.844;2023-11-19T07:25:20;99948.50;;;3.14;96.76
77149;BME280;66122;47.130;16.844;2023-11-19T07:35:22;99931.56;;;3.31;95.69
77149;BME280;66122;47.130;16.844;2023-11-19T07:45:25;99910.13;;;3.52;94.13
77149;BME280;66122;47.130;16.844;2023-11-19T07:55:30;99857.78;;;3.84;92.65
77149;BME280;66122;47.130;16.844;2023-11-19T08:05:34;99882.88;;;3.95;90.15
77149;BME280;66122;47.130;16.844;2023-11-19T08:15:37;99848.84;;;3.93;92.27
77149;BME280;66122;47.130;16.844;2023-11-19T08:25:40;99830.66;;;4.19;93.64
77149;BME280;66122;47.130;16.844;2023-11-19T08:35:42;99833.00;;;4.30;92.93
77149;BME280;66122;47.130;16.844;2023-11-19T08:45:45;99837.63;;;4.53;91.74
77149;BME280;66122;47.130;16.844;2023-11-19T08:55:47;99844.09;;;4.70;91.21
77149;BME280;66122;47.130;16.844;2023-11-19T09:05:52;99860.28;;;5.14;89.61
77149;BME280;66122;47.130;16.844;2023-11-19T09:15:54;99842.19;;;5.61;88.27
77149;BME280;66122;47.130;16.844;2023-11-19T09:25:59;99812.38;;;5.88;84.79
77149;BME280;66122;47.130;16.844;2023-11-19T09:36:02;99808.25;;;5.79;82.17
77149;BME280;66122;47.130;16.844;2023-11-19T09:46:06;99785.75;;;5.71;81.46
77149;BME280;66122;47.130;16.844;2023-11-19T09:56:09;99762.09;;;5.97;80.27
77149;BME280;66122;47.130;16.844;2023-11-19T10:06:16;99729.28;;;6.07;78.31
77149;BME280;66122;47.130;16.844;2023-11-19T10:16:28;99731.53;;;6.86;77.53
77149;BME280;66122;47.130;16.844;2023-11-19T10:26:31;99725.88;;;6.52;76.15
77149;BME280;66122;47.130;16.844;2023-11-19T10:36:39;99716.47;;;6.68;76.78
77149;BME280;66122;47.130;16.844;2023-11-19T10:46:44;99691.91;;;6.68;74.80
77149;BME280;66122;47.130;16.844;2023-11-19T10:56:54;99675.31;;;6.87;74.53
77149;BME280;66122;47.130;16.844;2023-11-19T11:06:58;99671.09;;;6.83;73.29
77149;BME280;66122;47.130;16.844;2023-11-19T11:17:02;99659.00;;;6.99;73.70
77149;BME280;66122;47.130;16.844;2023-11-19T11:38:06;99633.94;;;7.52;71.46
77149;BME280;66122;47.130;16.844;2023-11-19T11:48:14;99600.06;;;7.42;71.93
77149;BME280;66122;47.130;16.844;2023-11-19T11:58:29;99605.00;;;7.50;74.32
77149;BME280;66122;47.130;16.844;2023-11-19T12:08:34;99599.16;;;8.57;72.27
77149;BME280;66122;47.130;16.844;2023-11-19T12:18:54;99569.06;;;10.29;64.90
77149;BME280;66122;47.130;16.844;2023-11-19T12:28:58;99539.34;;;16.51;47.35
77149;BME280;66122;47.130;16.844;2023-11-19T12:39:01;99537.63;;;17.25;42.34
77149;BME280;66122;47.130;16.844;2023-11-19T12:49:04;99529.72;;;14.79;43.66
77149;BME280;66122;47.130;16.844;2023-11-19T12:59:11;99531.41;;;12.27;49.64
77149;BME280;66122;47.130;16.844;2023-11-19T13:09:24;99528.72;;;10.70;56.38
77149;BME280;66122;47.130;16.844;2023-11-19T13:19:28;99540.34;;;9.89;58.69
77149;BME280;66122;47.130;16.844;2023-11-19T13:29:30;99536.66;;;9.27;61.23
77149;BME280;66122;47.130;16.844;2023-11-19T13:39:34;99536.91;;;9.05;65.65
77149;BME280;66122;47.130;16.844;2023-11-19T13:49:37;99559.28;;;9.15;65.15
77149;BME280;66122;47.130;16.844;2023-11-19T13:59:40;99555.09;;;9.28;64.19
77149;BME280;66122;47.130;16.844;2023-11-19T14:09:43;99542.16;;;9.22;65.33
77149;BME280;66122;47.130;16.844;2023-11-19T14:19:47;99559.13;;;9.18;62.52
77149;BME280;66122;47.130;16.844;2023-11-19T14:29:50;99563.53;;;9.00;66.80
77149;BME280;66122;47.130;16.844;2023-11-19T14:39:53;99555.53;;;8.68;68.62
77149;BME280;66122;47.130;16.844;2023-11-19T14:49:56;99542.53;;;8.27;71.53
77149;BME280;66122;47.130;16.844;2023-11-19T14:59:58;99542.84;;;7.83;71.77
77149;BME280;66122;47.130;16.844;2023-11-19T15:10:01;99514.84;;;7.42;74.72
77149;BME280;66122;47.130;16.844;2023-11-19T15:20:04;99527.97;;;7.04;77.28
77149;BME280;66122;47.130;16.844;2023-11-19T15:30:07;99533.63;;;6.75;77.79
77149;BME280;66122;47.130;16.844;2023-11-19T15:40:12;99531.34;;;6.46;81.42
77149;BME280;66122;47.130;16.844;2023-11-19T15:50:16;99553.13;;;6.27;82.25
77149;BME280;66122;47.130;16.844;2023-11-19T16:00:19;99555.69;;;6.07;82.19
77149;BME280;66122;47.130;16.844;2023-11-19T16:10:24;99549.44;;;5.88;84.43
77149;BME280;66122;47.130;16.844;2023-11-19T16:20:28;99535.97;;;5.72;84.90
77149;BME280;66122;47.130;16.844;2023-11-19T16:30:30;99533.53;;;5.68;86.20
77149;BME280;66122;47.130;16.844;2023-11-19T16:40:33;99548.94;;;5.54;87.77
77149;BME280;66122;47.130;16.844;2023-11-19T16:50:41;99538.88;;;5.18;89.31
77149;BME280;66122;47.130;16.844;2023-11-19T17:00:43;99553.06;;;4.88;93.27
77149;BME280;66122;47.130;16.844;2023-11-19T17:10:48;99539.94;;;4.61;93.56
77149;BME280;66122;47.130;16.844;2023-11-19T17:20:51;99540.06;;;4.58;96.12
77149;BME280;66122;47.130;16.844;2023-11-19T17:30:59;99542.16;;;4.47;96.51
77149;BME280;66122;47.130;16.844;2023-11-19T17:41:03;99545.72;;;4.46;96.79
77149;BME280;66122;47.130;16.844;2023-11-19T17:51:07;99544.19;;;4.39;98.86
77149;BME280;66122;47.130;16.844;2023-11-19T18:01:09;99522.44;;;4.36;99.45
77149;BME280;66122;47.130;16.844;2023-11-19T18:11:14;99529.75;;;4.26;99.90
77149;BME280;66122;47.130;16.844;2023-11-19T18:21:17;99540.06;;;4.32;99.66
77149;BME280;66122;47.130;16.844;2023-11-19T18:31:20;99525.47;;;4.23;100.00
77149;BME280;66122;47.130;16.844;2023-11-19T18:41:23;99536.66;;;4.28;100.00
77149;BME280;66122;47.130;16.844;2023-11-19T18:51:26;99529.75;;;4.26;100.00
77149;BME280;66122;47.130;16.844;2023-11-19T19:01:29;99538.91;;;4.13;100.00
77149;BME280;66122;47.130;16.844;2023-11-19T19:11:34;99542.91;;;3.97;100.00
77149;BME280;66122;47.130;16.844;2023-11-19T19:21:38;99548.56;;;4.11;100.00
77149;BME280;66122;47.130;16.844;2023-11-19T19:31:41;99543.91;;;3.92;100.00
77149;BME280;66122;47.130;16.844;2023-11-19T19:41:44;99534.75;;;3.78;100.00
77149;BME280;66122;47.130;16.844;2023-11-19T19:51:46;99533.19;;;3.72;100.00
77149;BME280;66122;47.130;16.844;2023-11-19T20:01:49;99546.47;;;3.66;100.00
77149;BME280;66122;47.130;16.844;2023-11-19T20:11:54;99530.16;;;3.57;100.00
77149;BME280;66122;47.130;16.844;2023-11-19T20:21:58;99536.47;;;3.79;100.00
77149;BME280;66122;47.130;16.844;2023-11-19T20:32:01;99539.81;;;4.12;100.00
77149;BME280;66122;47.130;16.844;2023-11-19T20:42:04;99561.63;;;4.40;100.00
77149;BME280;66122;47.130;16.844;2023-11-19T20:52:07;99558.72;;;4.49;100.00
77149;BME280;66122;47.130;16.844;2023-11-19T21:02:10;99581.41;;;4.50;100.00
77149;BME280;66122;47.130;16.844;2023-11-19T21:12:13;99582.66;;;4.11;100.00
77149;BME280;66122;47.130;16.844;2023-11-19T21:22:17;99564.25;;;3.55;100.00
77149;BME280;66122;47.130;16.844;2023-11-19T21:32:20;99583.59;;;3.19;100.00
77149;BME280;66122;47.130;16.844;2023-11-19T21:42:23;99584.94;;;3.02;100.00
77149;BME280;66122;47.130;16.844;2023-11-19T21:52:26;99567.00;;;3.20;100.00
77149;BME280;66122;47.130;16.844;2023-11-19T22:02:28;99578.94;;;3.30;100.00
77149;BME280;66122;47.130;16.844;2023-11-19T22:12:31;99550.03;;;3.33;100.00
77149;BME280;66122;47.130;16.844;2023-11-19T22:22:35;99551.31;;;3.49;100.00
77149;BME280;66122;47.130;16.844;2023-11-19T22:32:37;99519.44;;;3.35;100.00
77149;BME280;66122;47.130;16.844;2023-11-19T22:42:40;99524.06;;;3.25;100.00
77149;BME280;66122;47.130;16.844;2023-11-19T22:52:44;99551.00;;;2.98;100.00
77149;BME280;66122;47.130;16.844;2023-11-19T23:02:46;99558.69;;;2.71;100.00
77149;BME280;66122;47.130;16.844;2023-11-19T23:12:49;99546.56;;;2.67;100.00
77149;BME280;66122;47.130;16.844;2023-11-19T23:22:52;99582.25;;;2.70;100.00
77149;BME280;66122;47.130;16.844;2023-11-19T23:32:55;99577.41;;;2.89;100.00
77149;BME280;66122;47.130;16.844;2023-11-19T23:42:57;99573.94;;;2.88;100.00
77149;BME280;66122;47.130;16.844;2023-11-19T23:53:00;99554.97;;;2.80;100.00
